createdAt,value
2023-03-15T00:00:19.651Z,3.11
2023-03-15T00:00:54.002Z,3.01
2023-03-15T00:01:21.728Z,2.37
2023-03-15T00:01:54.062Z,2.76
2023-03-15T00:02:23.643Z,3.01
2023-03-15T00:02:55.197Z,2.37
2023-03-15T00:03:26.516Z,2.67
2023-03-15T00:03:57.516Z,4.50
2023-03-15T00:04:27.546Z,4.50
2023-03-15T00:04:59.194Z,3.22
2023-03-15T00:05:30.001Z,2.76
2023-03-15T00:06:01.465Z,4.38
2023-03-15T00:06:31.514Z,2.00
2023-03-15T00:07:03.157Z,2.07
2023-03-15T00:07:33.533Z,3.20
2023-03-15T00:08:05.188Z,2.87
2023-03-15T00:08:37.228Z,4.38
2023-03-15T00:09:07.168Z,2.87
2023-03-15T00:09:37.534Z,3.08
2023-03-15T00:10:09.228Z,3.20
2023-03-15T00:10:39.940Z,2.62
2023-03-15T00:11:11.249Z,2.71
2023-03-15T00:11:41.511Z,2.87
2023-03-15T00:12:13.215Z,3.20
2023-03-15T00:12:44.294Z,4.38
2023-03-15T00:13:15.140Z,4.38
2023-03-15T00:13:46.823Z,2.00
2023-03-15T00:14:20.573Z,1.89
2023-03-15T00:14:47.557Z,1.82
2023-03-15T00:15:19.948Z,1.89
2023-03-15T00:15:50.439Z,2.85
2023-03-15T00:16:21.305Z,3.01
2023-03-15T00:16:51.528Z,3.34
2023-03-15T00:17:23.237Z,2.14
2023-03-15T00:17:53.493Z,1.96
2023-03-15T00:18:25.147Z,1.83
2023-03-15T00:18:56.481Z,3.01
2023-03-15T00:19:27.171Z,2.58
2023-03-15T00:19:57.910Z,2.58
2023-03-15T00:20:40.345Z,1.67
2023-03-15T00:20:59.527Z,1.96
2023-03-15T00:21:31.160Z,2.67
2023-03-15T00:22:01.565Z,3.22
2023-03-15T00:22:33.238Z,1.96
2023-03-15T00:23:03.635Z,2.58
2023-03-15T00:23:35.280Z,2.03
2023-03-15T00:24:06.506Z,2.67
2023-03-15T00:24:36.859Z,2.85
2023-03-15T00:25:07.502Z,2.21
2023-03-15T00:25:39.643Z,2.67
2023-03-15T00:26:10.188Z,3.22
2023-03-15T00:26:41.242Z,4.38
2023-03-15T00:27:11.470Z,2.44
2023-03-15T00:27:43.226Z,2.62
2023-03-15T00:28:13.477Z,2.03
2023-03-15T00:28:45.912Z,3.01
2023-03-15T00:29:16.507Z,2.50
2023-03-15T00:29:47.169Z,2.21
2023-03-15T00:30:18.672Z,1.67
2023-03-15T00:30:49.317Z,2.29
2023-03-15T00:31:19.509Z,2.76
2023-03-15T00:31:51.153Z,1.83
2023-03-15T00:32:21.564Z,1.96
2023-03-15T00:32:53.243Z,3.11
2023-03-15T00:33:23.509Z,2.67
2023-03-15T00:33:55.354Z,4.50
2023-03-15T00:34:26.481Z,3.11
2023-03-15T00:34:57.538Z,3.34
2023-03-15T00:35:28.590Z,2.58
2023-03-15T00:35:59.286Z,1.73
2023-03-15T00:36:29.466Z,4.50
2023-03-15T00:37:01.371Z,1.75
2023-03-15T00:37:31.489Z,2.23
2023-03-15T00:38:03.195Z,2.87
2023-03-15T00:38:33.503Z,3.20
2023-03-15T00:39:05.194Z,2.07
2023-03-15T00:39:36.548Z,1.82
2023-03-15T00:40:07.692Z,2.97
2023-03-15T00:40:41.927Z,2.35
2023-03-15T00:41:09.205Z,2.44
2023-03-15T00:41:39.459Z,2.35
2023-03-15T00:42:11.900Z,4.38
2023-03-15T00:42:41.501Z,2.97
2023-03-15T00:43:13.159Z,2.44
2023-03-15T00:43:43.469Z,2.62
2023-03-15T00:44:15.228Z,2.97
2023-03-15T00:44:46.530Z,2.71
2023-03-15T00:45:19.218Z,3.20
2023-03-15T00:45:47.521Z,4.27
2023-03-15T00:46:19.223Z,3.07
2023-03-15T00:46:49.565Z,2.49
2023-03-15T00:47:21.160Z,2.85
2023-03-15T00:47:51.590Z,2.25
2023-03-15T00:48:23.163Z,2.04
2023-03-15T00:48:53.489Z,1.70
2023-03-15T00:49:25.176Z,4.22
2023-03-15T00:49:56.470Z,2.04
2023-03-15T00:50:27.679Z,4.27
2023-03-15T00:50:57.479Z,2.85
2023-03-15T00:51:29.191Z,2.31
2023-03-15T00:51:59.520Z,2.74
2023-03-15T00:52:31.215Z,2.85
2023-03-15T00:53:02.256Z,2.68
2023-03-15T00:53:33.590Z,1.70
2023-03-15T00:54:03.581Z,1.06
2023-03-15T00:54:35.465Z,1.63
2023-03-15T00:55:07.126Z,2.31
2023-03-15T00:55:38.135Z,2.59
2023-03-15T00:56:07.469Z,2.85
2023-03-15T00:56:39.384Z,4.27
2023-03-15T00:57:09.459Z,4.22
2023-03-15T00:57:41.226Z,2.04
2023-03-15T00:58:11.496Z,2.12
2023-03-15T00:58:43.236Z,1.68
2023-03-15T00:59:13.443Z,2.21
2023-03-15T00:59:45.707Z,4.11
2023-03-15T01:00:18.077Z,4.11
2023-03-15T01:00:48.677Z,4.11
2023-03-15T01:01:17.623Z,4.22
2023-03-15T01:01:49.384Z,1.63
2023-03-15T01:02:19.577Z,3.02
2023-03-15T01:02:51.294Z,2.90
2023-03-15T01:03:22.389Z,1.33
2023-03-15T01:03:53.198Z,1.33
2023-03-15T01:04:23.507Z,2.79
2023-03-15T01:04:55.183Z,1.88
2023-03-15T01:05:26.997Z,1.63
2023-03-15T01:05:57.506Z,3.02
2023-03-15T01:06:28.293Z,4.22
2023-03-15T01:06:59.209Z,2.90
2023-03-15T01:07:29.595Z,4.22
2023-03-15T01:08:01.429Z,2.25
2023-03-15T01:08:31.500Z,1.49
2023-03-15T01:09:03.871Z,1.83
2023-03-15T01:09:33.499Z,1.49
2023-03-15T01:10:06.016Z,1.91
2023-03-15T01:10:36.550Z,2.66
2023-03-15T01:11:07.160Z,2.56
2023-03-15T01:11:37.492Z,2.12
2023-03-15T01:12:09.184Z,2.04
2023-03-15T01:12:39.541Z,1.91
2023-03-15T01:13:11.265Z,1.08
2023-03-15T01:13:41.483Z,2.40
2023-03-15T01:14:13.180Z,1.36
2023-03-15T01:14:43.781Z,.58
2023-03-15T01:15:16.023Z,.68
2023-03-15T01:15:47.258Z,.90
2023-03-15T01:16:18.221Z,.34
2023-03-15T01:16:47.436Z,.82
2023-03-15T01:17:19.154Z,1.33
2023-03-15T01:17:49.465Z,1.12
2023-03-15T01:18:21.227Z,.95
2023-03-15T01:18:51.502Z,.60
2023-03-15T01:19:23.207Z,.93
2023-03-15T01:19:54.235Z,-.06
2023-03-15T01:20:26.061Z,.01
2023-03-15T01:20:56.432Z,-.20
2023-03-15T01:21:27.203Z,.58
2023-03-15T01:21:57.584Z,.53
2023-03-15T01:22:29.579Z,1.01
2023-03-15T01:22:59.511Z,1.12
2023-03-15T01:23:31.196Z,2.04
2023-03-15T01:24:01.571Z,1.13
2023-03-15T01:24:32.466Z,-.02
2023-03-15T01:25:04.040Z,.41
2023-03-15T01:25:35.201Z,.53
2023-03-15T01:26:06.443Z,-.12
2023-03-15T01:26:37.502Z,1.26
2023-03-15T01:27:07.453Z,.63
2023-03-15T01:27:39.208Z,1.36
2023-03-15T01:28:09.489Z,1.36
2023-03-15T01:28:41.202Z,2.40
2023-03-15T01:29:11.484Z,1.29
2023-03-15T01:29:43.371Z,1.44
2023-03-15T01:30:14.739Z,.85
2023-03-15T01:30:45.259Z,1.00
2023-03-15T01:31:16.474Z,.80
2023-03-15T01:31:47.355Z,.63
2023-03-15T01:32:17.475Z,1.13
2023-03-15T01:32:49.249Z,1.07
2023-03-15T01:33:19.953Z,1.23
2023-03-15T01:33:51.158Z,2.08
2023-03-15T01:34:21.430Z,1.78
2023-03-15T01:34:53.265Z,1.62
2023-03-15T01:35:23.996Z,1.48
2023-03-15T01:35:55.554Z,1.40
2023-03-15T01:36:26.480Z,2.40
2023-03-15T01:36:57.468Z,1.29
2023-03-15T01:37:27.483Z,1.40
2023-03-15T01:37:59.184Z,1.40
2023-03-15T01:38:29.471Z,1.64
2023-03-15T01:39:01.819Z,1.15
2023-03-15T01:39:31.544Z,1.15
2023-03-15T01:40:03.977Z,.03
2023-03-15T01:40:37.586Z,.13
2023-03-15T01:41:05.238Z,.25
2023-03-15T01:41:36.533Z,1.15
2023-03-15T01:42:07.163Z,1.29
2023-03-15T01:42:37.540Z,1.48
2023-03-15T01:43:09.454Z,1.56
2023-03-15T01:43:39.661Z,.98
2023-03-15T01:44:11.190Z,1.64
2023-03-15T01:44:41.454Z,.92
2023-03-15T01:45:15.348Z,.80
2023-03-15T01:45:43.713Z,1.08
2023-03-15T01:46:15.223Z,.25
2023-03-15T01:46:46.499Z,3.88
2023-03-15T01:47:19.166Z,.80
2023-03-15T01:47:47.428Z,.80
2023-03-15T01:48:19.174Z,2.29
2023-03-15T01:48:49.451Z,1.77
2023-03-15T01:49:21.759Z,1.09
2023-03-15T01:49:51.473Z,2.27
2023-03-15T01:50:23.941Z,2.50
2023-03-15T01:50:53.506Z,2.16
2023-03-15T01:51:25.149Z,.95
2023-03-15T01:51:56.451Z,3.72
2023-03-15T01:52:27.177Z,2.45
2023-03-15T01:52:57.444Z,1.67
2023-03-15T01:53:29.147Z,2.11
2023-03-15T01:53:59.450Z,1.21
2023-03-15T01:54:31.159Z,.96
2023-03-15T01:55:01.685Z,1.76
2023-03-15T01:55:33.781Z,3.72
2023-03-15T01:56:03.635Z,2.33
2023-03-15T01:56:35.151Z,2.22
2023-03-15T01:57:06.559Z,2.22
2023-03-15T01:57:37.513Z,.51
2023-03-15T01:58:07.538Z,1.45
2023-03-15T01:58:39.308Z,1.67
2023-03-15T01:59:09.771Z,1.21
2023-03-15T01:59:41.263Z,1.76
2023-03-15T02:00:13.292Z,1.85
2023-03-15T02:00:49.069Z,1.85
2023-03-15T02:01:13.559Z,1.85
2023-03-15T02:01:45.193Z,.89
2023-03-15T02:02:16.675Z,1.98
2023-03-15T02:02:47.704Z,1.16
2023-03-15T02:03:17.506Z,.97
2023-03-15T02:03:49.167Z,1.16
2023-03-15T02:04:19.505Z,2.22
2023-03-15T02:04:51.186Z,3.72
2023-03-15T02:05:21.981Z,2.45
2023-03-15T02:05:53.168Z,1.76
2023-03-15T02:06:23.453Z,1.21
2023-03-15T02:06:55.402Z,.89
2023-03-15T02:07:26.425Z,3.72
2023-03-15T02:07:57.457Z,1.76
2023-03-15T02:08:27.445Z,1.58
2023-03-15T02:08:59.146Z,2.45
2023-03-15T02:09:29.428Z,3.72
2023-03-15T02:10:01.685Z,3.72
2023-03-15T02:10:32.111Z,2.32
2023-03-15T02:11:03.152Z,1.72
2023-03-15T02:11:33.447Z,1.54
2023-03-15T02:12:05.279Z,2.20
2023-03-15T02:12:36.502Z,3.50
2023-03-15T02:13:07.219Z,1.03
2023-03-15T02:13:38.036Z,.95
2023-03-15T02:14:09.133Z,1.19
2023-03-15T02:14:39.471Z,.95
2023-03-15T02:15:11.909Z,1.32
2023-03-15T02:15:41.515Z,1.11
2023-03-15T02:16:13.655Z,1.85
2023-03-15T02:16:43.643Z,1.96
2023-03-15T02:17:15.135Z,3.50
2023-03-15T02:17:46.467Z,1.96
2023-03-15T02:18:18.261Z,2.06
2023-03-15T02:18:47.431Z,1.18
2023-03-15T02:19:19.163Z,1.82
2023-03-15T02:19:49.494Z,2.06
2023-03-15T02:20:21.727Z,1.82
2023-03-15T02:20:51.513Z,1.71
2023-03-15T02:21:23.149Z,2.06
2023-03-15T02:21:53.435Z,1.71
2023-03-15T02:22:25.151Z,1.82
2023-03-15T02:22:56.840Z,3.50
2023-03-15T02:23:27.155Z,1.59
2023-03-15T02:23:57.455Z,2.20
2023-03-15T02:24:29.190Z,3.50
2023-03-15T02:24:59.456Z,2.20
2023-03-15T02:25:30.879Z,3.50
2023-03-15T02:26:02.256Z,3.38
2023-03-15T02:26:32.504Z,1.94
2023-03-15T02:27:04.319Z,3.38
2023-03-15T02:27:34.699Z,1.94
2023-03-15T02:28:07.154Z,1.27
2023-03-15T02:28:36.788Z,2.06
2023-03-15T02:29:08.182Z,2.06
2023-03-15T02:29:38.410Z,3.38
2023-03-15T02:30:11.485Z,2.06
2023-03-15T02:30:40.491Z,3.38
2023-03-15T02:31:12.188Z,1.82
2023-03-15T02:31:42.580Z,3.38
2023-03-15T02:32:14.361Z,3.38
2023-03-15T02:32:44.633Z,3.38
2023-03-15T02:33:17.116Z,3.38
2023-03-15T02:33:47.021Z,3.38
2023-03-15T02:34:18.147Z,3.38
2023-03-15T02:34:48.441Z,3.38
2023-03-15T02:35:20.572Z,2.06
2023-03-15T02:35:50.473Z,1.82
2023-03-15T02:36:22.718Z,3.38
2023-03-15T02:36:52.473Z,1.94
2023-03-15T02:37:24.327Z,1.71
2023-03-15T02:37:54.644Z,1.71
2023-03-15T02:38:27.126Z,1.36
2023-03-15T02:38:56.759Z,.38
2023-03-15T02:39:28.187Z,1.45
2023-03-15T02:39:58.444Z,1.55
2023-03-15T02:40:38.740Z,3.38
2023-03-15T02:41:00.439Z,3.38
2023-03-15T02:41:32.165Z,3.38
2023-03-15T02:42:02.560Z,1.94
2023-03-15T02:42:34.543Z,.88
2023-03-15T02:43:04.503Z,3.38
2023-03-15T02:43:37.196Z,1.71
2023-03-15T02:44:06.447Z,1.94
2023-03-15T02:44:38.156Z,3.38
2023-03-15T02:45:09.606Z,3.38
2023-03-15T02:45:40.251Z,1.94
2023-03-15T02:46:10.463Z,1.94
2023-03-15T02:46:42.147Z,1.71
2023-03-15T02:47:12.915Z,1.50
2023-03-15T02:47:44.198Z,1.85
2023-03-15T02:48:14.482Z,1.82
2023-03-15T02:48:47.163Z,1.59
2023-03-15T02:49:17.058Z,1.36
2023-03-15T02:49:48.812Z,1.45
2023-03-15T02:50:18.931Z,1.82
2023-03-15T02:50:50.132Z,3.38
2023-03-15T02:51:20.425Z,1.27
2023-03-15T02:51:52.181Z,1.05
2023-03-15T02:52:22.502Z,2.06
2023-03-15T02:52:54.303Z,3.38
2023-03-15T02:53:24.421Z,3.38
2023-03-15T02:53:57.137Z,3.38
2023-03-15T02:54:26.654Z,1.82
2023-03-15T02:54:58.262Z,2.06
2023-03-15T02:55:28.858Z,3.38
2023-03-15T02:56:00.192Z,1.05
2023-03-15T02:56:30.458Z,1.55
2023-03-15T02:57:02.279Z,3.38
2023-03-15T02:57:32.418Z,3.38
2023-03-15T02:58:04.359Z,3.38
2023-03-15T02:58:34.486Z,.19
2023-03-15T02:59:07.704Z,1.55
2023-03-15T02:59:36.782Z,.81
2023-03-15T03:00:10.458Z,1.03
2023-03-15T03:00:47.850Z,1.59
2023-03-15T03:01:10.193Z,3.50
2023-03-15T03:01:40.761Z,2.08
2023-03-15T03:02:12.296Z,3.50
2023-03-15T03:02:42.543Z,1.71
2023-03-15T03:03:15.758Z,.69
2023-03-15T03:03:44.522Z,1.94
2023-03-15T03:04:17.189Z,.32
2023-03-15T03:04:47.096Z,.62
2023-03-15T03:05:18.578Z,.69
2023-03-15T03:05:48.772Z,1.85
2023-03-15T03:06:20.366Z,1.32
2023-03-15T03:06:50.533Z,.95
2023-03-15T03:07:22.708Z,.19
2023-03-15T03:07:52.492Z,.84
2023-03-15T03:08:24.244Z,.62
2023-03-15T03:08:54.530Z,3.61
2023-03-15T03:09:27.242Z,1.54
2023-03-15T03:09:56.738Z,1.24
2023-03-15T03:10:28.561Z,1.16
2023-03-15T03:10:58.490Z,.89
2023-03-15T03:11:30.242Z,1.24
2023-03-15T03:12:00.437Z,3.50
2023-03-15T03:12:32.144Z,1.59
2023-03-15T03:13:02.515Z,1.50
2023-03-15T03:13:34.197Z,1.11
2023-03-15T03:14:04.928Z,.53
2023-03-15T03:14:37.206Z,.95
2023-03-15T03:15:07.479Z,.95
2023-03-15T03:15:38.153Z,.53
2023-03-15T03:16:08.472Z,1.41
2023-03-15T03:16:40.766Z,1.32
2023-03-15T03:17:10.427Z,2.32
2023-03-15T03:17:42.192Z,2.09
2023-03-15T03:18:12.475Z,.66
2023-03-15T03:18:44.170Z,1.03
2023-03-15T03:19:14.597Z,.39
2023-03-15T03:19:47.098Z,-.06
2023-03-15T03:20:25.860Z,-.06
2023-03-15T03:20:37.501Z,-.16
2023-03-15T03:21:15.811Z,-.16
2023-03-15T03:21:18.435Z,2.08
2023-03-15T03:21:50.172Z,1.41
2023-03-15T03:22:20.442Z,.76
2023-03-15T03:22:52.142Z,.24
2023-03-15T03:23:22.499Z,.46
2023-03-15T03:23:54.311Z,1.32
2023-03-15T03:24:24.545Z,2.08
2023-03-15T03:24:56.456Z,1.41
2023-03-15T03:25:26.856Z,3.50
2023-03-15T03:25:58.130Z,1.96
2023-03-15T03:26:28.428Z,3.50
2023-03-15T03:27:00.380Z,2.20
2023-03-15T03:27:30.910Z,3.50
2023-03-15T03:28:02.117Z,3.50
2023-03-15T03:28:32.435Z,3.50
2023-03-15T03:29:04.472Z,1.85
2023-03-15T03:29:34.410Z,3.50
2023-03-15T03:30:08.190Z,.10
2023-03-15T03:30:36.546Z,-.01
2023-03-15T03:31:08.484Z,.81
2023-03-15T03:31:38.504Z,1.36
2023-03-15T03:32:10.133Z,1.71
2023-03-15T03:32:40.556Z,.88
2023-03-15T03:33:12.148Z,.81
2023-03-15T03:33:42.437Z,1.36
2023-03-15T03:34:14.578Z,1.36
2023-03-15T03:34:44.460Z,.88
2023-03-15T03:35:17.590Z,1.36
2023-03-15T03:35:46.459Z,.69
2023-03-15T03:36:18.146Z,.10
2023-03-15T03:36:48.460Z,-.44
2023-03-15T03:37:20.219Z,.25
2023-03-15T03:37:50.447Z,1.03
2023-03-15T03:38:22.129Z,.24
2023-03-15T03:38:52.525Z,-.43
2023-03-15T03:39:24.389Z,1.03
2023-03-15T03:39:54.779Z,.33
2023-03-15T03:40:36.912Z,1.50
2023-03-15T03:40:56.941Z,3.50
2023-03-15T03:41:28.412Z,.95
2023-03-15T03:41:58.441Z,.69
2023-03-15T03:42:30.281Z,.96
2023-03-15T03:43:00.460Z,2.06
2023-03-15T03:43:33.035Z,.10
2023-03-15T03:44:02.493Z,.32
2023-03-15T03:44:34.179Z,.04
2023-03-15T03:45:06.320Z,1.05
2023-03-15T03:45:37.199Z,1.36
2023-03-15T03:46:06.528Z,1.71
2023-03-15T03:46:38.219Z,.19
2023-03-15T03:47:08.411Z,.04
2023-03-15T03:47:40.479Z,1.05
2023-03-15T03:48:10.418Z,1.27
2023-03-15T03:48:42.195Z,1.36
2023-03-15T03:49:12.506Z,.19
2023-03-15T03:49:44.214Z,1.45
2023-03-15T03:50:14.954Z,.69
2023-03-15T03:50:47.142Z,1.71
2023-03-15T03:51:16.492Z,1.82
2023-03-15T03:51:48.446Z,.25
2023-03-15T03:52:18.478Z,-.07
2023-03-15T03:52:50.142Z,.10
2023-03-15T03:53:20.446Z,-.12
2023-03-15T03:53:52.145Z,-.12
2023-03-15T03:54:23.133Z,.88
2023-03-15T03:54:54.188Z,-.01
2023-03-15T03:55:24.898Z,-.20
2023-03-15T03:55:57.137Z,.38
2023-03-15T03:56:26.428Z,-.12
2023-03-15T03:56:58.816Z,-.20
2023-03-15T03:57:28.429Z,-.12
2023-03-15T03:58:00.266Z,.48
2023-03-15T03:58:30.589Z,-.65
2023-03-15T03:59:02.146Z,.04
2023-03-15T03:59:32.523Z,.32
2023-03-15T04:00:05.386Z,.19
2023-03-15T04:00:35.767Z,-.58
2023-03-15T04:01:07.225Z,.48
2023-03-15T04:01:36.477Z,-.01
2023-03-15T04:02:08.625Z,-.07
2023-03-15T04:02:38.534Z,1.05
2023-03-15T04:03:10.271Z,1.27
2023-03-15T04:03:40.596Z,-.20
2023-03-15T04:04:12.182Z,.81
2023-03-15T04:04:42.622Z,1.05
2023-03-15T04:05:14.876Z,.25
2023-03-15T04:05:44.621Z,.67
2023-03-15T04:06:17.165Z,1.33
2023-03-15T04:06:46.464Z,-.03
2023-03-15T04:07:18.326Z,.56
2023-03-15T04:07:49.063Z,1.14
2023-03-15T04:08:20.236Z,1.33
2023-03-15T04:08:50.448Z,1.05
2023-03-15T04:09:22.394Z,.75
2023-03-15T04:09:52.498Z,.12
2023-03-15T04:10:25.291Z,1.27
2023-03-15T04:10:54.567Z,.69
2023-03-15T04:11:27.118Z,-.45
2023-03-15T04:11:56.531Z,.62
2023-03-15T04:12:28.528Z,1.08
2023-03-15T04:12:58.487Z,.86
2023-03-15T04:13:30.350Z,1.17
2023-03-15T04:14:00.434Z,1.37
2023-03-15T04:14:32.556Z,.29
2023-03-15T04:15:02.633Z,.77
2023-03-15T04:15:35.004Z,.86
2023-03-15T04:16:04.577Z,.29
2023-03-15T04:16:37.146Z,.77
2023-03-15T04:17:06.590Z,1.27
2023-03-15T04:17:38.645Z,1.64
2023-03-15T04:18:08.621Z,.56
2023-03-15T04:18:40.225Z,1.75
2023-03-15T04:19:10.437Z,.86
2023-03-15T04:19:42.204Z,1.40
2023-03-15T04:20:13.125Z,1.14
2023-03-15T04:20:47.116Z,.37
2023-03-15T04:21:15.175Z,1.51
2023-03-15T04:21:47.369Z,3.11
2023-03-15T04:22:16.491Z,1.51
2023-03-15T04:22:48.420Z,1.40
2023-03-15T04:23:18.605Z,1.63
2023-03-15T04:23:50.128Z,.86
2023-03-15T04:24:20.501Z,1.24
2023-03-15T04:24:51.502Z,.92
2023-03-15T04:25:23.124Z,.51
2023-03-15T04:25:54.239Z,1.39
2023-03-15T04:26:24.632Z,.82
2023-03-15T04:26:57.155Z,1.01
2023-03-15T04:27:26.603Z,1.01
2023-03-15T04:27:59.006Z,1.50
2023-03-15T04:28:28.470Z,1.14
2023-03-15T04:29:00.113Z,-.35
2023-03-15T04:29:30.532Z,.87
2023-03-15T04:30:02.522Z,.02
2023-03-15T04:30:33.148Z,.97
2023-03-15T04:31:04.341Z,.29
2023-03-15T04:31:34.498Z,1.49
2023-03-15T04:32:07.101Z,2.88
2023-03-15T04:32:36.534Z,1.14
2023-03-15T04:33:08.406Z,1.24
2023-03-15T04:33:38.426Z,2.77
2023-03-15T04:34:10.155Z,.74
2023-03-15T04:34:41.015Z,.55
2023-03-15T04:35:12.658Z,1.24
2023-03-15T04:35:42.543Z,1.24
2023-03-15T04:36:14.108Z,2.77
2023-03-15T04:36:44.699Z,2.77
2023-03-15T04:37:17.590Z,.74
2023-03-15T04:37:46.386Z,2.72
2023-03-15T04:38:18.151Z,1.30
2023-03-15T04:38:48.695Z,.02
2023-03-15T04:39:20.104Z,.18
2023-03-15T04:39:50.425Z,.59
2023-03-15T04:40:23.266Z,.95
2023-03-15T04:40:52.419Z,.02
2023-03-15T04:41:24.834Z,-.08
2023-03-15T04:41:54.528Z,.10
2023-03-15T04:42:27.120Z,-.16
2023-03-15T04:42:56.413Z,.49
2023-03-15T04:43:28.724Z,-.08
2023-03-15T04:43:58.450Z,.49
2023-03-15T04:44:34.056Z,-.31
2023-03-15T04:45:00.541Z,1.06
2023-03-15T04:45:32.426Z,2.72
2023-03-15T04:46:03.149Z,.27
2023-03-15T04:46:33.512Z,-.23
2023-03-15T04:47:05.199Z,-.44
2023-03-15T04:47:36.449Z,.36
2023-03-15T04:48:09.135Z,.14
2023-03-15T04:48:37.515Z,-.02
2023-03-15T04:49:08.415Z,-1.21
2023-03-15T04:49:40.130Z,-1.44
2023-03-15T04:50:10.879Z,-.83
2023-03-15T04:50:42.106Z,-.15
2023-03-15T04:51:12.428Z,-.13
2023-03-15T04:51:44.137Z,-2.11
2023-03-15T04:52:14.679Z,-1.44
2023-03-15T04:52:47.132Z,-1.29
2023-03-15T04:53:16.414Z,-1.95
2023-03-15T04:53:48.439Z,-1.81
2023-03-15T04:54:18.458Z,-1.68
2023-03-15T04:54:50.699Z,-.43
2023-03-15T04:55:20.848Z,-.03
2023-03-15T04:55:52.166Z,-.51
2023-03-15T04:56:22.496Z,-.34
2023-03-15T04:56:54.295Z,-1.57
2023-03-15T04:57:24.602Z,-2.03
2023-03-15T04:57:57.350Z,-.91
2023-03-15T04:58:26.523Z,-2.29
2023-03-15T04:58:58.172Z,-1.17
2023-03-15T04:59:28.400Z,-1.49
2023-03-15T05:00:00.133Z,-1.92
2023-03-15T05:00:31.680Z,-2.04
2023-03-15T05:01:02.331Z,-1.92
2023-03-15T05:01:32.476Z,-1.45
2023-03-15T05:02:04.356Z,-.02
2023-03-15T05:02:34.824Z,-1.62
2023-03-15T05:03:07.198Z,-.61
2023-03-15T05:03:36.527Z,-1.10
2023-03-15T05:04:08.446Z,-1.69
2023-03-15T05:04:38.433Z,-2.59
2023-03-15T05:05:10.563Z,-2.10
2023-03-15T05:05:41.013Z,-1.16
2023-03-15T05:06:12.156Z,-1.08
2023-03-15T05:06:42.529Z,-2.16
2023-03-15T05:07:14.171Z,-2.16
2023-03-15T05:07:44.824Z,-3.41
2023-03-15T05:08:17.893Z,-2.73
2023-03-15T05:08:46.461Z,-1.62
2023-03-15T05:09:17.428Z,-2.04
2023-03-15T05:09:49.225Z,-3.08
2023-03-15T05:10:19.855Z,-1.92
2023-03-15T05:10:51.151Z,-1.49
2023-03-15T05:11:21.570Z,-1.89
2023-03-15T05:11:53.238Z,-2.02
2023-03-15T05:12:24.063Z,-1.34
2023-03-15T05:12:55.358Z,-.21
2023-03-15T05:13:26.467Z,-1.77
2023-03-15T05:13:57.170Z,-3.05
2023-03-15T05:14:27.911Z,-3.37
2023-03-15T05:14:59.917Z,-2.17
2023-03-15T05:15:30.409Z,-2.72
2023-03-15T05:16:01.477Z,-1.44
2023-03-15T05:16:31.532Z,-1.29
2023-03-15T05:17:03.183Z,-.89
2023-03-15T05:17:34.220Z,-1.96
2023-03-15T05:18:05.276Z,-2.11
2023-03-15T05:18:36.651Z,-3.35
2023-03-15T05:19:07.332Z,-2.59
2023-03-15T05:19:37.477Z,-2.50
2023-03-15T05:20:09.716Z,-3.19
2023-03-15T05:20:41.688Z,-2.79
2023-03-15T05:21:11.110Z,-2.63
2023-03-15T05:21:41.395Z,-3.14
2023-03-15T05:22:13.200Z,-1.99
2023-03-15T05:22:43.430Z,-2.70
2023-03-15T05:23:15.245Z,-2.58
2023-03-15T05:23:46.415Z,-2.21
2023-03-15T05:24:17.297Z,-2.64
2023-03-15T05:24:47.722Z,-2.71
2023-03-15T05:25:18.902Z,-2.48
2023-03-15T05:25:50.100Z,-3.14
2023-03-15T05:26:20.541Z,-2.48
2023-03-15T05:26:52.235Z,-1.76
2023-03-15T05:27:22.542Z,-2.96
2023-03-15T05:27:54.635Z,-3.40
2023-03-15T05:28:25.433Z,-3.53
2023-03-15T05:28:57.105Z,-3.53
2023-03-15T05:29:26.666Z,-1.60
2023-03-15T05:29:58.186Z,-3.24
2023-03-15T05:30:29.235Z,-2.82
2023-03-15T05:31:00.790Z,-2.90
2023-03-15T05:31:30.639Z,-3.53
2023-03-15T05:32:02.227Z,-2.14
2023-03-15T05:32:32.945Z,.38
2023-03-15T05:33:04.425Z,-2.76
2023-03-15T05:33:34.909Z,-1.74
2023-03-15T05:34:07.158Z,-3.38
2023-03-15T05:34:36.484Z,-2.88
2023-03-15T05:35:09.515Z,-2.03
2023-03-15T05:35:38.478Z,-1.62
2023-03-15T05:36:10.189Z,-2.67
2023-03-15T05:36:40.423Z,-2.03
2023-03-15T05:37:12.115Z,-3.38
2023-03-15T05:37:42.457Z,-2.58
2023-03-15T05:38:14.121Z,-2.03
2023-03-15T05:38:45.697Z,-2.49
2023-03-15T05:39:17.190Z,-3.75
2023-03-15T05:39:46.555Z,-1.74
2023-03-15T05:40:18.550Z,-3.55
2023-03-15T05:40:49.165Z,-2.97
2023-03-15T05:41:20.303Z,-3.55
2023-03-15T05:41:50.628Z,-3.75
2023-03-15T05:42:22.563Z,-3.96
2023-03-15T05:42:52.626Z,-3.30
2023-03-15T05:43:25.388Z,-2.98
2023-03-15T05:43:54.626Z,-3.47
2023-03-15T05:44:27.793Z,-3.75
2023-03-15T05:44:56.617Z,-2.62
2023-03-15T05:45:29.340Z,-1.60
2023-03-15T05:45:59.129Z,-3.30
2023-03-15T05:46:30.298Z,-2.90
2023-03-15T05:47:00.590Z,-2.98
2023-03-15T05:47:33.725Z,-3.09
2023-03-15T05:48:02.640Z,-3.81
2023-03-15T05:48:34.785Z,-3.87
2023-03-15T05:49:04.619Z,-3.53
2023-03-15T05:49:37.252Z,-2.69
2023-03-15T05:50:07.358Z,-2.22
2023-03-15T05:50:38.245Z,-2.61
2023-03-15T05:51:08.622Z,-2.61
2023-03-15T05:51:40.289Z,-3.40
2023-03-15T05:52:10.589Z,-2.40
2023-03-15T05:52:42.355Z,-3.74
2023-03-15T05:53:12.562Z,-3.27
2023-03-15T05:53:46.015Z,-3.40
2023-03-15T05:54:14.772Z,-3.10
2023-03-15T05:54:48.050Z,-3.27
2023-03-15T05:55:17.455Z,-3.03
2023-03-15T05:55:48.118Z,-3.53
2023-03-15T05:56:19.332Z,-2.85
2023-03-15T05:56:49.559Z,-2.56
2023-03-15T05:57:21.285Z,-3.14
2023-03-15T05:57:51.645Z,-2.35
2023-03-15T05:58:23.326Z,-2.82
2023-03-15T05:58:53.597Z,-2.71
2023-03-15T05:59:25.389Z,-3.65
2023-03-15T05:59:56.581Z,-2.18
2023-03-15T06:00:29.261Z,-1.53
2023-03-15T06:00:57.896Z,-2.09
2023-03-15T06:01:29.259Z,-2.09
2023-03-15T06:01:59.982Z,-2.90
2023-03-15T06:02:31.273Z,-3.14
2023-03-15T06:03:01.598Z,-2.56
2023-03-15T06:03:33.309Z,-3.84
2023-03-15T06:04:03.884Z,-2.90
2023-03-15T06:04:35.573Z,-3.60
2023-03-15T06:05:07.004Z,-3.39
2023-03-15T06:05:37.389Z,-3.74
2023-03-15T06:06:08.130Z,-3.54
2023-03-15T06:06:39.272Z,-3.65
2023-03-15T06:07:09.614Z,-3.90
2023-03-15T06:07:41.312Z,-3.54
2023-03-15T06:08:11.672Z,-4.45
2023-03-15T06:08:44.420Z,-4.41
2023-03-15T06:09:14.034Z,-3.65
2023-03-15T06:09:45.419Z,-3.74
2023-03-15T06:10:17.262Z,-2.90
2023-03-15T06:10:47.335Z,-4.13
2023-03-15T06:11:17.586Z,-2.48
2023-03-15T06:11:49.287Z,-2.56
2023-03-15T06:12:19.714Z,-3.27
2023-03-15T06:12:51.332Z,-2.56
2023-03-15T06:13:21.579Z,-2.27
2023-03-15T06:13:53.301Z,-3.03
2023-03-15T06:14:23.564Z,-2.61
2023-03-15T06:14:55.330Z,-3.53
2023-03-15T06:15:27.835Z,-3.53
2023-03-15T06:15:57.299Z,-3.67
2023-03-15T06:16:27.943Z,-4.16
2023-03-15T06:16:59.285Z,-4.72
2023-03-15T06:17:29.637Z,-3.79
2023-03-15T06:18:01.528Z,-4.04
2023-03-15T06:18:31.555Z,-4.11
2023-03-15T06:19:03.238Z,-3.27
2023-03-15T06:19:35.073Z,-3.87
2023-03-15T06:20:05.569Z,-2.61
2023-03-15T06:20:39.150Z,-2.69
2023-03-15T06:21:07.244Z,-1.87
2023-03-15T06:21:37.561Z,-2.77
2023-03-15T06:22:09.678Z,-2.77
2023-03-15T06:22:39.553Z,-2.85
2023-03-15T06:23:11.280Z,-2.85
2023-03-15T06:23:41.531Z,-1.97
2023-03-15T06:24:14.066Z,-1.66
2023-03-15T06:24:43.571Z,-1.35
2023-03-15T06:25:15.153Z,-2.69
2023-03-15T06:25:46.556Z,-2.31
2023-03-15T06:26:17.243Z,-2.40
2023-03-15T06:26:47.801Z,-1.76
2023-03-15T06:27:19.345Z,-2.22
2023-03-15T06:27:49.554Z,-1.97
2023-03-15T06:28:21.386Z,-2.22
2023-03-15T06:28:51.553Z,-2.22
2023-03-15T06:29:23.204Z,.61
2023-03-15T06:29:53.661Z,-1.97
2023-03-15T06:30:26.113Z,.61
2023-03-15T06:30:56.644Z,-1.48
2023-03-15T06:31:27.201Z,.61
2023-03-15T06:31:57.739Z,-1.76
2023-03-15T06:32:29.330Z,-1.76
2023-03-15T06:33:00.240Z,-2.61
2023-03-15T06:33:31.218Z,-2.85
2023-03-15T06:34:01.581Z,-3.03
2023-03-15T06:34:33.238Z,-3.03
2023-03-15T06:35:04.096Z,-3.27
2023-03-15T06:35:36.104Z,-3.03
2023-03-15T06:36:06.656Z,-2.35
2023-03-15T06:36:37.291Z,-2.53
2023-03-15T06:37:07.936Z,-2.20
2023-03-15T06:37:39.348Z,-3.40
2023-03-15T06:38:11.834Z,-2.76
2023-03-15T06:38:41.259Z,-2.67
2023-03-15T06:39:11.566Z,-3.55
2023-03-15T06:39:43.188Z,-3.55
2023-03-15T06:40:14.079Z,-2.49
2023-03-15T06:40:47.748Z,-1.92
2023-03-15T06:41:16.538Z,-1.92
2023-03-15T06:41:47.246Z,-1.62
2023-03-15T06:42:17.521Z,-2.97
2023-03-15T06:42:49.244Z,-2.49
2023-03-15T06:43:19.706Z,-1.74
2023-03-15T06:43:51.188Z,-2.76
2023-03-15T06:44:21.504Z,-2.76
2023-03-15T06:44:53.192Z,-3.55
2023-03-15T06:45:24.628Z,-3.05
2023-03-15T06:45:55.515Z,-2.24
2023-03-15T06:46:26.576Z,-3.01
2023-03-15T06:46:57.306Z,-3.10
2023-03-15T06:47:27.825Z,-3.58
2023-03-15T06:47:59.324Z,-2.71
2023-03-15T06:48:29.714Z,-2.16
2023-03-15T06:49:02.152Z,-3.26
2023-03-15T06:49:31.609Z,-3.10
2023-03-15T06:50:03.335Z,-2.62
2023-03-15T06:50:46.137Z,-2.27